Time;durP1;ratioP1;P1;durP2;ratioP2;P2;SDS_P1;SDS_P2;PMS_P1;PMS_P2;Temp;Humidity;BMP_temperature;BMP_pressure;BME280_temperature;BME280_humidity;BME280_pressure;Samples;Min_cycle;Max_cycle;Signal;HPM_P1;HPM_P2
2021/10/31 00:00:30;;;;;;;3.33;1.85;;;;;;;25.62;35.57;96075.53;5023218;28;20036;-60
2021/10/31 00:02:55;;;;;;;3.35;1.83;;;;;;;25.63;35.52;96082.47;5025066;28;20025;-60
2021/10/31 00:05:21;;;;;;;4.53;2.05;;;;;;;25.62;35.57;96086.03;5024388;28;20032;-60
2021/10/31 00:07:46;;;;;;;3.17;1.73;;;;;;;25.60;35.67;96087.91;5026225;28;20111;-61
2021/10/31 00:10:11;;;;;;;3.22;1.85;;;;;;;25.62;35.66;96083.41;5009015;28;20043;-61
2021/10/31 00:12:37;;;;;;;4.00;1.80;;;;;;;25.62;35.63;96091.28;5008908;28;20043;-63
2021/10/31 00:15:03;;;;;;;2.75;1.75;;;;;;;25.61;35.55;96089.56;5007979;28;20112;-60
2021/10/31 00:17:29;;;;;;;3.83;1.80;;;;;;;25.61;35.52;96086.94;5027843;28;20415;-61
2021/10/31 00:19:54;;;;;;;2.50;1.70;;;;;;;25.61;35.69;96106.16;5029490;28;20214;-61
2021/10/31 00:22:20;;;;;;;2.30;1.73;;;;;;;25.61;35.77;96098.31;5025039;28;20323;-61
2021/10/31 00:24:46;;;;;;;2.85;1.90;;;;;;;25.62;35.56;96096.53;5014541;28;20040;-61
2021/10/31 00:27:11;;;;;;;2.05;1.50;;;;;;;25.61;35.66;96106.16;5029238;28;20028;-60
2021/10/31 00:29:36;;;;;;;2.72;1.73;;;;;;;25.61;35.48;96105.31;5027965;28;21092;-60
2021/10/31 00:32:02;;;;;;;2.35;1.58;;;;;;;25.61;35.65;96115.81;5030442;28;20029;-60
2021/10/31 00:34:28;;;;;;;3.97;1.95;;;;;;;25.60;35.50;96117.63;5034413;28;20033;-61
2021/10/31 00:36:53;;;;;;;2.72;1.70;;;;;;;25.62;35.60;96104.41;5030461;28;20025;-60
2021/10/31 00:39:18;;;;;;;4.50;1.63;;;;;;;25.61;35.82;96105.31;5032253;28;20438;-61
2021/10/31 00:41:44;;;;;;;2.97;1.70;;;;;;;25.60;35.66;96103.63;5033869;28;20107;-62
2021/10/31 00:44:09;;;;;;;2.30;1.45;;;;;;;25.60;35.68;96101.88;5032300;28;20033;-62
2021/10/31 00:46:35;;;;;;;2.38;1.60;;;;;;;25.60;35.62;96099.25;5031927;28;20395;-60
2021/10/31 00:49:01;;;;;;;3.17;1.58;;;;;;;25.60;35.58;96098.38;5000287;28;20492;-61
2021/10/31 00:51:26;;;;;;;2.45;1.70;;;;;;;25.60;35.74;96098.38;5029481;28;20029;-61
2021/10/31 00:53:56;;;;;;;2.38;1.58;;;;;;;25.60;35.66;96096.63;5032399;28;20462;-61
2021/10/31 00:56:22;;;;;;;4.35;1.60;;;;;;;25.60;35.66;96106.25;5029229;28;20039;-61
2021/10/31 00:58:48;;;;;;;3.08;1.52;;;;;;;25.60;35.72;96103.63;4997135;28;20208;-61
2021/10/31 01:01:13;;;;;;;2.13;1.42;;;;;;;25.59;35.72;96100.16;5030728;28;20017;-62
2021/10/31 01:03:40;;;;;;;2.40;1.38;;;;;;;25.60;35.72;96107.13;5014031;28;20036;-61
2021/10/31 01:06:30;;;;;;;1.92;1.50;;;;;;;25.60;35.77;96098.38;5027374;28;20119;-60
2021/10/31 01:08:59;;;;;;;2.22;1.55;;;;;;;25.59;35.74;96101.97;5029092;28;20039;-59
2021/10/31 01:11:45;;;;;;;2.55;1.55;;;;;;;25.59;35.76;96101.97;5027126;28;20056;-62
2021/10/31 01:14:21;;;;;;;2.20;1.63;;;;;;;25.59;35.75;96110.66;5030289;28;20136;-61
2021/10/31 01:17:11;;;;;;;2.13;1.38;;;;;;;25.60;35.67;96112.38;5028911;28;20048;-60
2021/10/31 01:20:09;;;;;;;1.67;1.40;;;;;;;25.59;35.75;96109.84;5026512;28;20051;-61
2021/10/31 01:22:56;;;;;;;2.95;1.60;;;;;;;25.58;35.62;96108.97;5024495;28;20048;-62
2021/10/31 01:25:46;;;;;;;3.03;1.65;;;;;;;25.56;35.55;96103.81;5028252;28;21171;-62
2021/10/31 01:28:37;;;;;;;2.13;1.30;;;;;;;25.58;35.60;96101.09;4993575;28;20025;-60
2021/10/31 01:31:33;;;;;;;2.00;1.52;;;;;;;25.57;35.78;96102.91;5030520;28;20801;-60
2021/10/31 01:34:18;;;;;;;3.55;1.48;;;;;;;25.57;35.81;96102.91;5013014;28;20032;-61
2021/10/31 01:37:05;;;;;;;2.25;1.20;;;;;;;25.56;35.78;96100.38;5028695;28;20033;-60
2021/10/31 01:39:40;;;;;;;2.30;1.38;;;;;;;25.56;35.65;96098.56;5005735;28;20036;-60
2021/10/31 01:42:24;;;;;;;2.85;1.50;;;;;;;25.56;35.72;96087.25;5013873;28;20375;-61
2021/10/31 01:44:51;;;;;;;3.75;1.45;;;;;;;25.56;35.83;96092.50;5013094;28;20354;-61
2021/10/31 01:47:27;;;;;;;2.47;1.38;;;;;;;25.56;35.83;96093.31;5025953;28;20033;-60
2021/10/31 01:50:17;;;;;;;1.92;1.40;;;;;;;25.56;35.80;96093.31;5016851;28;20032;-60
2021/10/31 01:52:53;;;;;;;1.40;1.25;;;;;;;25.55;35.77;96094.25;5016844;28;20089;-60
2021/10/31 01:55:22;;;;;;;1.92;1.50;;;;;;;25.54;35.72;96089.94;5013940;28;20080;-60
2021/10/31 01:57:48;;;;;;;1.95;1.27;;;;;;;25.55;35.87;96088.19;5031009;28;20041;-62
2021/10/31 02:00:14;;;;;;;3.17;1.35;;;;;;;25.55;35.73;96094.25;5027963;28;20037;-62
2021/10/31 02:02:42;;;;;;;2.95;1.40;;;;;;;25.55;35.93;96086.38;5030909;28;20373;-61
2021/10/31 02:05:08;;;;;;;2.05;1.42;;;;;;;25.55;35.84;96080.31;5014714;28;20025;-62
2021/10/31 02:07:39;;;;;;;2.58;1.40;;;;;;;25.54;35.78;96081.22;5015967;28;20159;-61
2021/10/31 02:10:05;;;;;;;3.95;1.17;;;;;;;25.55;35.81;96080.31;5029214;28;20027;-62
2021/10/31 02:12:30;;;;;;;1.63;1.25;;;;;;;25.55;35.66;96075.06;5027598;28;20518;-59
2021/10/31 02:14:56;;;;;;;1.40;1.00;;;;;;;25.55;35.87;96086.38;5016142;28;20029;-62
2021/10/31 02:17:21;;;;;;;2.47;1.27;;;;;;;25.56;35.85;96082.84;5020209;28;20020;-62
2021/10/31 02:19:47;;;;;;;2.17;1.10;;;;;;;25.56;35.75;96077.59;5027079;28;20503;-61
2021/10/31 02:22:23;;;;;;;1.60;1.20;;;;;;;25.55;35.82;96073.25;5024898;28;20024;-61
2021/10/31 02:24:49;;;;;;;3.42;1.35;;;;;;;25.56;35.85;96074.97;5012239;28;20045;-61
2021/10/31 02:27:16;;;;;;;1.40;1.17;;;;;;;25.55;35.76;96068.00;5032303;28;20025;-61
2021/10/31 02:29:49;;;;;;;1.85;1.30;;;;;;;25.54;35.76;96061.09;5028462;28;20024;-60
2021/10/31 02:32:15;;;;;;;2.55;1.40;;;;;;;25.56;35.69;96064.47;5027500;28;20341;-61
2021/10/31 02:34:40;;;;;;;1.45;1.10;;;;;;;25.56;35.71;96063.66;5030612;28;20030;-61
2021/10/31 02:37:06;;;;;;;1.65;1.10;;;;;;;25.55;35.67;96064.56;5029901;28;20041;-61
2021/10/31 02:39:31;;;;;;;1.25;1.10;;;;;;;25.56;35.83;96069.72;5030897;28;20025;-61
2021/10/31 02:41:57;;;;;;;3.03;1.10;;;;;;;25.56;35.72;96068.91;5027354;28;20029;-62
2021/10/31 02:44:22;;;;;;;1.55;1.08;;;;;;;25.55;35.75;96070.63;5031610;28;20079;-61
2021/10/31 02:46:47;;;;;;;2.13;1.10;;;;;;;25.55;35.70;96073.25;5029403;28;20129;-61
2021/10/31 02:49:13;;;;;;;1.75;1.30;;;;;;;25.56;35.75;96074.97;5013153;28;20039;-62
2021/10/31 02:51:42;;;;;;;3.95;1.95;;;;;;;25.57;36.00;96083.69;4992074;28;20029;-60
2021/10/31 02:54:21;;;;;;;1.55;1.27;;;;;;;25.55;35.95;96083.75;5032023;28;20108;-60
2021/10/31 02:56:58;;;;;;;1.45;1.30;;;;;;;25.55;35.97;96078.50;4999588;28;20494;-61
2021/10/31 02:59:38;;;;;;;1.60;1.05;;;;;;;25.53;35.82;96072.53;5019433;28;20032;-62
2021/10/31 03:02:04;;;;;;;3.58;1.42;;;;;;;25.54;35.82;96068.09;4996369;28;20499;-61
2021/10/31 03:04:29;;;;;;;2.97;1.50;;;;;;;25.53;35.90;96072.53;5028666;28;20043;-61
2021/10/31 03:06:55;;;;;;;2.88;1.20;;;;;;;25.52;35.85;96081.31;4997636;28;20068;-62
2021/10/31 03:09:20;;;;;;;2.25;1.00;;;;;;;25.54;35.89;96074.19;5026508;28;20503;-62
2021/10/31 03:11:46;;;;;;;1.35;1.05;;;;;;;25.53;35.60;96072.53;5014153;28;20140;-62
2021/10/31 03:14:11;;;;;;;3.03;1.20;;;;;;;25.53;35.91;96072.53;5029376;28;20541;-61
2021/10/31 03:16:37;;;;;;;2.58;1.08;;;;;;;25.51;35.97;96063.91;5032066;28;20025;-62
2021/10/31 03:19:02;;;;;;;2.55;1.08;;;;;;;25.53;36.00;96066.44;5028165;28;20018;-62
2021/10/31 03:21:28;;;;;;;2.15;1.38;;;;;;;25.53;35.85;96066.44;5031309;28;20025;-61
2021/10/31 03:23:53;;;;;;;2.65;1.33;;;;;;;25.53;35.78;96066.44;5028247;28;20033;-60
2021/10/31 03:26:18;;;;;;;2.55;1.00;;;;;;;25.52;35.90;96062.94;5032053;28;20029;-61
2021/10/31 03:28:44;;;;;;;1.65;1.23;;;;;;;25.53;35.89;96062.03;5005975;28;20950;-61
2021/10/31 03:31:09;;;;;;;1.92;1.20;;;;;;;25.53;35.91;96062.03;5013448;28;20576;-61
2021/10/31 03:33:35;;;;;;;1.60;1.17;;;;;;;25.54;35.77;96058.47;5027456;28;20033;-61
2021/10/31 03:36:00;;;;;;;1.23;0.88;;;;;;;25.54;35.75;96065.47;5028899;28;20036;-61
2021/10/31 03:38:25;;;;;;;5.55;1.20;;;;;;;25.54;35.87;96068.97;5028030;28;20103;-61
2021/10/31 03:40:51;;;;;;;1.20;0.98;;;;;;;25.55;35.79;96064.56;5012209;28;20025;-60
2021/10/31 03:43:19;;;;;;;1.60;1.13;;;;;;;25.54;35.71;96065.47;5025016;28;20132;-62
2021/10/31 03:45:45;;;;;;;1.58;1.13;;;;;;;25.54;35.82;96068.09;5023056;28;20446;-62
2021/10/31 03:48:10;;;;;;;1.02;0.90;;;;;;;25.54;35.90;96044.50;5030541;28;20084;-62
2021/10/31 03:50:35;;;;;;;1.85;0.90;;;;;;;25.55;35.82;96040.94;5014486;28;20032;-60
2021/10/31 03:53:01;;;;;;;1.38;1.00;;;;;;;25.54;35.82;96036.63;5029117;28;20387;-62
2021/10/31 03:55:26;;;;;;;2.15;1.20;;;;;;;25.54;35.96;96041.88;5024152;28;20707;-62
2021/10/31 03:57:52;;;;;;;1.92;1.02;;;;;;;25.54;35.77;96058.47;5026588;28;20491;-62
2021/10/31 04:00:17;;;;;;;1.23;1.08;;;;;;;25.53;35.85;96048.06;5009774;28;20066;-60
2021/10/31 04:02:43;;;;;;;2.17;1.00;;;;;;;25.53;35.71;96051.53;5024317;28;20041;-60
2021/10/31 04:05:09;;;;;;;2.10;0.95;;;;;;;25.54;35.78;96042.72;5028716;28;20025;-60
2021/10/31 04:07:35;;;;;;;1.85;1.10;;;;;;;25.55;35.78;96041.78;5029253;28;20030;-62
2021/10/31 04:10:01;;;;;;;1.23;1.00;;;;;;;25.55;35.92;96039.16;5025783;28;20021;-60
2021/10/31 04:12:26;;;;;;;1.67;1.20;;;;;;;25.55;35.73;96039.16;5024170;28;20489;-61
2021/10/31 04:14:52;;;;;;;2.15;1.15;;;;;;;25.54;35.75;96040.09;5024125;28;20033;-60
2021/10/31 04:17:17;;;;;;;1.05;0.80;;;;;;;25.56;35.88;96045.28;5023595;28;20029;-62
2021/10/31 04:19:42;;;;;;;1.45;1.10;;;;;;;25.55;35.78;96049.66;5010282;28;20626;-61
2021/10/31 04:22:08;;;;;;;1.92;1.30;;;;;;;25.55;35.74;96048.81;5029654;28;20519;-61
2021/10/31 04:24:33;;;;;;;1.73;1.08;;;;;;;25.54;35.88;96042.72;5026156;28;20412;-62
2021/10/31 04:26:59;;;;;;;1.50;1.08;;;;;;;25.55;35.67;96048.81;5029620;28;20506;-60
2021/10/31 04:29:25;;;;;;;1.85;0.80;;;;;;;25.54;35.87;96042.72;5015366;28;20033;-61
2021/10/31 04:31:51;;;;;;;1.60;1.10;;;;;;;25.54;35.86;96039.25;5007989;28;20036;-60
2021/10/31 04:34:16;;;;;;;1.70;1.00;;;;;;;25.54;35.84;96042.72;5026120;28;20072;-60
2021/10/31 04:36:42;;;;;;;1.70;0.80;;;;;;;25.53;35.99;96041.03;5027982;28;20683;-61
2021/10/31 04:39:07;;;;;;;2.45;1.05;;;;;;;25.52;35.76;96036.72;5027019;28;20055;-61
2021/10/31 04:41:33;;;;;;;1.20;0.98;;;;;;;25.52;35.79;96036.72;5025954;28;20653;-64
2021/10/31 04:43:58;;;;;;;2.78;1.00;;;;;;;25.51;35.75;96035.03;5024528;28;20030;-60
2021/10/31 04:46:24;;;;;;;1.10;0.80;;;;;;;25.50;35.97;96033.38;5007948;28;20033;-61
2021/10/31 04:48:49;;;;;;;1.40;0.93;;;;;;;25.51;35.92;96042.91;5013924;28;20334;-62
2021/10/31 04:51:14;;;;;;;1.30;0.90;;;;;;;25.51;35.83;96032.41;5010353;28;20017;-62
2021/10/31 04:53:40;;;;;;;1.00;0.80;;;;;;;25.51;35.76;96032.41;5011686;28;20524;-59
2021/10/31 04:56:05;;;;;;;4.13;1.23;;;;;;;25.51;35.86;96029.78;5030927;28;20294;-61
2021/10/31 04:58:31;;;;;;;2.38;1.10;;;;;;;25.51;35.98;96029.78;4994997;28;20550;-60
2021/10/31 05:00:56;;;;;;;1.50;1.20;;;;;;;25.50;36.09;96027.25;5027947;28;20132;-60
2021/10/31 05:03:22;;;;;;;1.95;1.10;;;;;;;25.52;36.00;96020.97;5026292;28;20117;-61
2021/10/31 05:05:47;;;;;;;1.30;1.20;;;;;;;25.51;35.97;96016.69;5031064;28;20041;-62
2021/10/31 05:08:13;;;;;;;1.40;0.80;;;;;;;25.50;36.13;96009.75;5030368;28;20079;-61
2021/10/31 05:10:38;;;;;;;1.83;1.02;;;;;;;25.51;35.87;96013.22;5033231;28;20028;-61
2021/10/31 05:13:04;;;;;;;1.70;1.20;;;;;;;25.51;36.03;96015.84;5030832;28;20312;-60
2021/10/31 05:15:29;;;;;;;1.70;1.00;;;;;;;25.50;35.96;96001.88;5030094;28;20036;-61
2021/10/31 05:17:55;;;;;;;1.95;1.00;;;;;;;25.51;36.03;96011.44;5028507;28;20060;-60
2021/10/31 05:20:21;;;;;;;1.40;1.05;;;;;;;25.50;35.92;96004.50;5028476;28;20017;-60
2021/10/31 05:22:46;;;;;;;1.48;1.13;;;;;;;25.50;35.92;96012.38;5013250;28;20038;-61
2021/10/31 05:25:12;;;;;;;1.38;1.08;;;;;;;25.51;36.00;96011.44;5029075;28;20024;-61
2021/10/31 05:27:37;;;;;;;1.33;1.10;;;;;;;25.49;36.00;96000.22;5031833;28;20029;-61
2021/10/31 05:30:04;;;;;;;1.13;0.93;;;;;;;25.49;36.01;95992.34;5012546;28;20071;-62
2021/10/31 05:32:36;;;;;;;1.20;0.90;;;;;;;25.50;35.99;95993.16;5030785;28;20080;-61
2021/10/31 05:35:05;;;;;;;2.40;1.10;;;;;;;25.50;35.92;95986.16;5031923;28;20024;-62
2021/10/31 05:37:34;;;;;;;1.38;0.80;;;;;;;25.49;36.00;95987.09;5023109;28;20094;-60
2021/10/31 05:40:01;;;;;;;2.63;1.20;;;;;;;25.49;35.91;95983.63;5032330;28;20022;-64
2021/10/31 05:42:27;;;;;;;0.88;0.77;;;;;;;25.49;35.96;95988.88;5015063;28;20029;-58
2021/10/31 05:44:52;;;;;;;1.13;1.00;;;;;;;25.49;36.05;95987.09;5027757;28;20479;-60
2021/10/31 05:47:18;;;;;;;0.93;0.90;;;;;;;25.48;36.12;95985.41;5021516;28;20040;-60
2021/10/31 05:49:43;;;;;;;0.93;0.82;;;;;;;25.49;36.08;95987.09;5012649;28;20479;-61
2021/10/31 05:52:09;;;;;;;1.70;0.90;;;;;;;25.48;35.94;95990.66;5013814;28;20032;-60
2021/10/31 05:54:34;;;;;;;1.00;0.90;;;;;;;25.48;36.03;95984.56;4997789;28;20017;-62
2021/10/31 05:57:00;;;;;;;1.92;0.93;;;;;;;25.48;36.12;95985.41;5027886;28;20257;-60
2021/10/31 05:59:25;;;;;;;2.35;1.10;;;;;;;25.47;36.20;95986.34;5031868;28;20120;-60
2021/10/31 06:01:51;;;;;;;1.27;0.90;;;;;;;25.48;36.07;95977.56;5031422;28;20313;-61
2021/10/31 06:04:16;;;;;;;1.33;0.85;;;;;;;25.49;35.94;95986.25;5029008;28;20215;-62
2021/10/31 06:06:41;;;;;;;1.23;0.98;;;;;;;25.48;36.07;95980.16;5029523;28;20609;-62
2021/10/31 06:09:07;;;;;;;1.30;1.20;;;;;;;25.48;36.11;95971.44;5030074;28;20058;-61
2021/10/31 06:11:34;;;;;;;2.42;1.88;;;;;;;25.48;36.12;95979.31;5030865;28;20028;-62
2021/10/31 06:13:59;;;;;;;1.77;1.20;;;;;;;25.47;36.05;95975.84;5015154;28;20022;-62
2021/10/31 06:16:26;;;;;;;4.20;1.50;;;;;;;25.47;36.08;95973.22;5012338;28;20040;-62
2021/10/31 06:18:51;;;;;;;2.63;1.58;;;;;;;25.47;36.13;95967.97;5025429;28;20033;-61
2021/10/31 06:21:17;;;;;;;2.65;1.40;;;;;;;25.46;36.11;95966.28;5029558;28;20029;-62
2021/10/31 06:23:42;;;;;;;2.95;1.73;;;;;;;25.45;36.15;95970.69;5029211;28;20018;-62
2021/10/31 06:26:07;;;;;;;1.60;1.23;;;;;;;25.46;35.98;95976.78;5009959;28;20060;-62
2021/10/31 06:28:33;;;;;;;1.92;1.20;;;;;;;25.46;36.08;95982.03;5031973;28;20080;-62
2021/10/31 06:30:58;;;;;;;2.58;1.00;;;;;;;25.45;36.11;95985.59;5027518;28;21130;-62
2021/10/31 06:33:24;;;;;;;1.73;1.20;;;;;;;25.45;36.21;95985.59;5030655;28;20025;-62
2021/10/31 06:35:50;;;;;;;1.63;1.23;;;;;;;25.44;36.03;95987.38;5029954;28;20029;-61
2021/10/31 06:38:16;;;;;;;3.15;1.30;;;;;;;25.45;36.14;95975.13;5032899;28;20028;-62
2021/10/31 06:40:41;;;;;;;2.72;1.30;;;;;;;25.45;35.97;95970.69;5029220;28;20035;-61
2021/10/31 06:43:06;;;;;;;1.40;1.20;;;;;;;25.46;36.03;95974.16;5015192;28;20036;-61
2021/10/31 06:45:32;;;;;;;1.83;1.30;;;;;;;25.46;36.18;95982.03;5031252;28;20017;-62
2021/10/31 06:47:57;;;;;;;2.33;1.10;;;;;;;25.47;36.03;95978.47;5026190;28;20029;-61
2021/10/31 06:50:23;;;;;;;1.48;1.23;;;;;;;25.46;36.14;95982.03;5028265;28;20037;-60
2021/10/31 06:52:50;;;;;;;2.10;1.27;;;;;;;25.46;36.23;95982.03;5027916;28;20610;-62
2021/10/31 06:55:16;;;;;;;1.23;1.10;;;;;;;25.47;36.03;95973.22;5029466;28;20546;-63
2021/10/31 06:57:41;;;;;;;1.33;1.23;;;;;;;25.48;35.94;95988.03;5016624;28;20279;-61
2021/10/31 07:00:07;;;;;;;1.67;1.50;;;;;;;25.47;35.99;95978.47;5015526;28;20032;-61
2021/10/31 07:02:33;;;;;;;3.47;1.20;;;;;;;25.48;36.12;95985.41;5006993;28;20032;-62
2021/10/31 07:04:58;;;;;;;1.70;1.30;;;;;;;25.49;36.05;95983.63;5030444;28;20036;-62
2021/10/31 07:07:23;;;;;;;1.08;1.00;;;;;;;25.48;36.22;95982.78;5026378;28;20024;-61
2021/10/31 07:09:49;;;;;;;1.20;1.10;;;;;;;25.48;36.22;95974.94;5029730;28;20027;-61
2021/10/31 07:12:15;;;;;;;2.08;1.13;;;;;;;25.49;36.00;95979.22;5030277;28;20466;-62
2021/10/31 07:14:41;;;;;;;1.83;1.33;;;;;;;25.51;35.92;95973.88;5028296;28;20029;-62
2021/10/31 07:17:06;;;;;;;2.40;1.33;;;;;;;25.50;36.14;95982.66;5028744;28;20335;-59
2021/10/31 07:19:31;;;;;;;3.85;1.30;;;;;;;25.49;36.21;95981.84;5030860;28;20079;-60
2021/10/31 07:21:57;;;;;;;5.18;1.40;;;;;;;25.49;36.20;95989.72;5027193;28;20083;-61
2021/10/31 07:24:22;;;;;;;4.70;2.28;;;;;;;25.50;36.23;95999.25;5027109;28;20033;-61
2021/10/31 07:26:48;;;;;;;8.32;2.67;;;;;;;25.51;36.17;95989.63;5024755;28;20176;-60
2021/10/31 07:29:13;;;;;;;10.23;2.40;;;;;;;25.50;36.20;95988.78;5030239;28;20028;-60
2021/10/31 07:31:40;;;;;;;8.90;3.00;;;;;;;25.52;36.22;95984.25;5029661;28;20118;-62
2021/10/31 07:34:08;;;;;;;12.80;2.97;;;;;;;25.52;36.08;95986.88;5031797;28;20017;-61
2021/10/31 07:36:34;;;;;;;12.43;3.42;;;;;;;25.53;36.17;95974.59;5028005;28;20026;-62
2021/10/31 07:39:00;;;;;;;9.43;3.33;;;;;;;25.53;36.32;95975.47;5030080;28;20036;-61
2021/10/31 07:41:25;;;;;;;12.20;3.60;;;;;;;25.53;36.20;95978.09;5029251;28;20484;-61
2021/10/31 07:43:53;;;;;;;13.93;3.67;;;;;;;25.56;36.46;95974.44;5026335;23;20052;-62
2021/10/31 07:46:19;;;;;;;8.32;3.13;;;;;;;25.56;36.51;95971.81;5045132;28;20036;-62
2021/10/31 07:48:45;;;;;;;8.35;3.47;;;;;;;25.56;36.39;95959.53;5030446;28;20114;-62
2021/10/31 07:51:10;;;;;;;11.50;3.63;;;;;;;25.56;36.69;95956.09;5028767;28;20017;-59
2021/10/31 07:53:39;;;;;;;13.02;3.53;;;;;;;25.57;36.49;95942.88;5032913;28;20021;-59
2021/10/31 07:56:05;;;;;;;6.97;3.20;;;;;;;25.60;36.47;95946.22;5032842;28;20468;-61
2021/10/31 07:58:30;;;;;;;9.88;3.40;;;;;;;25.61;36.46;95947.91;5030724;28;20104;-61
2021/10/31 08:00:56;;;;;;;11.52;3.92;;;;;;;25.62;36.37;95942.56;5037659;28;20063;-60
2021/10/31 08:03:21;;;;;;;13.07;3.80;;;;;;;25.64;36.51;95937.22;5045831;28;20205;-61
2021/10/31 08:05:47;;;;;;;8.48;3.78;;;;;;;25.64;36.66;95926.72;5044963;28;20028;-61
2021/10/31 08:08:12;;;;;;;8.15;3.25;;;;;;;25.68;36.52;95929.03;5038888;28;20025;-61
2021/10/31 08:10:38;;;;;;;9.48;3.50;;;;;;;25.69;36.51;95924.63;5033031;28;20467;-62
2021/10/31 08:13:03;;;;;;;10.35;3.55;;;;;;;25.71;36.37;95928.00;5032911;28;20495;-60
2021/10/31 08:15:29;;;;;;;7.20;3.38;;;;;;;25.72;36.49;95923.56;5029850;28;20029;-62
2021/10/31 08:17:54;;;;;;;11.35;3.78;;;;;;;25.71;36.01;95922.75;5030050;28;20059;-60
2021/10/31 08:20:21;;;;;;;6.72;3.80;;;;;;;25.73;36.37;95922.66;5031128;28;20045;-61
2021/10/31 08:22:47;;;;;;;7.28;3.55;;;;;;;25.74;36.20;95924.31;5047966;28;20475;-60
2021/10/31 08:25:12;;;;;;;10.73;4.07;;;;;;;25.76;36.22;95918.03;5035413;28;20025;-60
2021/10/31 08:27:38;;;;;;;7.72;3.67;;;;;;;25.78;36.06;95923.19;5032693;28;20033;-61
2021/10/31 08:30:04;;;;;;;8.95;3.90;;;;;;;25.78;36.18;95923.19;5031871;28;20647;-62
2021/10/31 08:32:37;;;;;;;7.53;3.28;;;;;;;25.78;36.10;95918.75;5030178;28;20491;-61
2021/10/31 08:35:02;;;;;;;5.05;2.67;;;;;;;25.80;36.22;95913.41;5030711;28;20083;-61
2021/10/31 08:37:28;;;;;;;8.40;2.95;;;;;;;25.81;36.10;95917.72;5031253;28;20029;-61
2021/10/31 08:39:53;;;;;;;7.35;3.42;;;;;;;25.81;36.23;95918.56;5035360;28;20388;-62
2021/10/31 08:42:19;;;;;;;7.43;3.25;;;;;;;25.82;36.31;95917.59;5035664;28;20558;-61
2021/10/31 08:44:45;;;;;;;7.70;3.20;;;;;;;25.83;36.27;95916.66;5033717;28;20036;-63
2021/10/31 08:47:10;;;;;;;9.35;3.08;;;;;;;25.85;36.30;95918.34;5033756;28;20035;-61
2021/10/31 08:49:35;;;;;;;4.72;2.65;;;;;;;25.86;36.44;95910.38;5035651;28;20080;-60
2021/10/31 08:52:05;;;;;;;6.65;3.08;;;;;;;25.87;36.29;95905.97;5036387;28;20024;-59
2021/10/31 08:54:33;;;;;;;5.43;2.70;;;;;;;25.86;36.47;95896.41;5036931;28;20644;-61
2021/10/31 08:56:59;;;;;;;7.30;3.13;;;;;;;25.89;36.17;95893.59;5034321;28;20480;-62
2021/10/31 08:59:24;;;;;;;6.40;2.75;;;;;;;25.89;36.35;95898.84;5032980;28;20048;-62
2021/10/31 09:01:50;;;;;;;5.28;2.90;;;;;;;25.90;36.24;95897.88;5036396;28;20056;-61
2021/10/31 09:04:15;;;;;;;5.55;2.90;;;;;;;25.90;36.15;95896.09;5034872;28;20036;-63
2021/10/31 09:06:40;;;;;;;5.50;2.88;;;;;;;25.91;36.17;95896.94;5028025;28;20031;-61
2021/10/31 09:09:06;;;;;;;5.63;2.63;;;;;;;25.91;36.29;95895.16;5029458;28;20037;-62
2021/10/31 09:11:31;;;;;;;6.05;2.70;;;;;;;25.91;36.23;95887.28;5035746;28;20041;-61
2021/10/31 09:13:58;;;;;;;4.55;2.40;;;;;;;25.93;36.22;95880.13;5033636;28;20021;-62
2021/10/31 09:16:24;;;;;;;5.28;2.42;;;;;;;25.94;36.44;95881.00;5034015;28;20025;-62
2021/10/31 09:18:49;;;;;;;4.43;2.40;;;;;;;25.95;36.41;95877.41;5035609;28;20029;-62
2021/10/31 09:21:17;;;;;;;6.32;2.80;;;;;;;25.97;36.16;95870.25;5033754;28;20037;-61
2021/10/31 09:23:43;;;;;;;3.70;2.97;;;;;;;25.96;35.44;95868.59;5034020;28;20021;-62
2021/10/31 09:26:08;;;;;;;4.70;3.03;;;;;;;25.91;35.07;95863.66;5031516;28;20029;-62
2021/10/31 09:28:35;;;;;;;6.00;2.65;;;;;;;25.88;34.98;95870.88;5033606;28;20029;-62
2021/10/31 09:31:01;;;;;;;4.80;2.97;;;;;;;25.82;35.06;95862.50;5030426;28;20033;-61
2021/10/31 09:33:26;;;;;;;2.95;2.40;;;;;;;25.78;34.89;95854.94;5033870;28;20018;-61
2021/10/31 09:35:56;;;;;;;4.45;2.78;;;;;;;25.74;35.09;95854.28;5031677;28;20048;-63
2021/10/31 09:38:24;;;;;;;4.07;2.50;;;;;;;25.70;35.08;95852.81;5031892;28;20530;-62
2021/10/31 09:40:50;;;;;;;5.63;3.05;;;;;;;25.64;35.19;95848.84;5031956;28;20025;-62
2021/10/31 09:43:16;;;;;;;2.92;2.10;;;;;;;25.61;35.39;95853.44;5034113;28;20028;-62
2021/10/31 09:45:41;;;;;;;2.65;1.85;;;;;;;25.54;35.46;95853.00;5031988;28;20559;-61
2021/10/31 09:48:09;;;;;;;1.50;1.38;;;;;;;25.49;35.33;95850.69;5034531;28;20037;-60
2021/10/31 09:50:37;;;;;;;2.58;1.52;;;;;;;25.45;35.40;95849.22;5031737;28;20028;-60
2021/10/31 09:53:03;;;;;;;2.90;1.60;;;;;;;25.42;35.37;95849.41;5032637;28;20029;-61
2021/10/31 09:55:29;;;;;;;8.63;1.45;;;;;;;25.42;35.64;95844.16;5030729;28;20025;-59
2021/10/31 09:57:54;;;;;;;1.45;1.20;;;;;;;25.43;35.84;95840.59;5034336;28;21727;-63
2021/10/31 10:00:31;;;;;;;2.80;1.30;;;;;;;25.43;35.87;95846.69;5032170;28;20024;-62
2021/10/31 10:03:07;;;;;;;6.78;2.17;;;;;;;25.45;35.71;95849.22;5029737;28;20033;-60
2021/10/31 10:05:32;;;;;;;14.23;2.58;;;;;;;25.48;35.93;95837.66;5033192;28;20328;-59
2021/10/31 10:08:12;;;;;;;15.57;3.00;;;;;;;25.50;35.83;95836.63;5032075;28;20033;-60
2021/10/31 10:10:45;;;;;;;12.35;4.38;;;;;;;25.51;35.96;95826.97;5048447;28;20029;-60
2021/10/31 10:13:25;;;;;;;26.05;3.80;;;;;;;25.54;35.92;95821.50;5030913;28;20514;-61
2021/10/31 10:15:51;;;;;;;17.10;3.88;;;;;;;25.55;35.96;95816.16;5029920;28;20021;-61
2021/10/31 10:18:32;;;;;;;22.45;4.47;;;;;;;25.57;36.15;95808.22;5030561;28;20025;-61
2021/10/31 10:21:35;;;;;;;15.77;4.05;;;;;;;25.59;36.09;95797.63;5029645;28;20025;-61
2021/10/31 10:24:02;;;;;;;18.45;4.20;;;;;;;25.60;35.92;95794.06;5032257;28;20044;-59
2021/10/31 10:26:31;;;;;;;19.00;4.15;;;;;;;25.63;36.03;95804.34;5031095;28;20022;-61
2021/10/31 10:29:09;;;;;;;15.32;3.50;;;;;;;25.64;36.18;95795.53;5031552;28;20950;-60
2021/10/31 10:31:34;;;;;;;17.05;4.40;;;;;;;25.66;36.11;95794.47;5032957;28;20112;-61
2021/10/31 10:34:00;;;;;;;12.52;3.60;;;;;;;25.68;36.07;95794.38;5048001;28;20111;-60
2021/10/31 10:36:26;;;;;;;13.88;3.83;;;;;;;25.69;35.98;95788.19;5035094;28;20040;-62
2021/10/31 10:39:09;;;;;;;10.73;3.65;;;;;;;25.70;36.27;95781.97;5049075;28;20029;-61
2021/10/31 10:41:39;;;;;;;15.27;3.60;;;;;;;25.72;36.19;95782.72;5032221;28;20062;-61
2021/10/31 10:44:43;;;;;;;14.13;3.33;;;;;;;25.75;36.22;95785.16;5033023;28;20039;-60
2021/10/31 10:47:16;;;;;;;14.65;3.80;;;;;;;25.76;36.30;95783.34;5032371;28;20037;-60
2021/10/31 10:49:44;;;;;;;14.50;3.90;;;;;;;25.76;36.30;95778.94;5033602;28;20114;-61
2021/10/31 10:52:30;;;;;;;11.73;3.20;;;;;;;25.77;36.33;95772.75;5030041;28;20511;-61
2021/10/31 10:54:58;;;;;;;11.45;3.28;;;;;;;25.78;36.19;95766.53;5031639;28;20402;-61
2021/10/31 10:57:24;;;;;;;11.90;3.08;;;;;;;25.81;36.21;95770.75;5031713;28;20456;-59
2021/10/31 10:59:55;;;;;;;10.25;3.40;;;;;;;25.79;36.27;95757.75;5033644;28;20052;-60
2021/10/31 11:02:22;;;;;;;9.27;3.15;;;;;;;25.81;36.14;95758.47;5048196;28;20130;-60
2021/10/31 11:04:51;;;;;;;10.93;2.88;;;;;;;25.82;36.20;95752.28;5030916;28;20025;-60
2021/10/31 11:07:17;;;;;;;7.40;2.88;;;;;;;25.82;36.32;95744.41;5033090;28;20029;-61
2021/10/31 11:09:47;;;;;;;8.50;2.80;;;;;;;25.85;36.25;95734.66;5031635;28;20061;-60
2021/10/31 11:12:31;;;;;;;8.48;2.85;;;;;;;25.85;36.26;95724.16;5033012;28;20025;-61
2021/10/31 11:15:17;;;;;;;7.80;2.40;;;;;;;25.85;36.14;95718.91;5030939;28;20026;-62
2021/10/31 11:17:44;;;;;;;7.55;2.78;;;;;;;25.87;36.47;95723.09;5039842;28;20570;-61
2021/10/31 11:20:12;;;;;;;6.03;2.47;;;;;;;25.88;36.36;95718.66;5031871;28;20021;-61
2021/10/31 11:22:43;;;;;;;6.25;2.35;;;;;;;25.89;36.34;95712.50;5046774;28;20061;-62
2021/10/31 11:25:09;;;;;;;10.00;2.50;;;;;;;25.89;36.37;95705.44;5030001;28;20079;-61
2021/10/31 11:27:35;;;;;;;6.13;2.53;;;;;;;25.92;36.28;95714.88;5013247;28;20032;-59
2021/10/31 11:30:00;;;;;;;7.28;2.60;;;;;;;25.91;36.37;95707.97;5031778;28;20029;-60
2021/10/31 11:32:27;;;;;;;10.00;2.58;;;;;;;25.92;36.42;95696.50;5046512;28;20470;-60
2021/10/31 11:34:54;;;;;;;6.90;2.28;;;;;;;25.92;36.24;95699.13;5032164;28;20124;-60